Aviation Digital Data Service (ADDS)

Output produced by METARs form (1043 UTC 20 September 2019)
found at http://aviationweather.gov/metar/data/
 
KMTJ 200520Z 2006/2106 15011KT P6SM FEW120 
     FM201100 13007KT P6SM SCT100 
     FM201500 17012G25KT P6SM SCT100 
     FM202100 23023G32KT P6SM FEW100 SCT150 
     FM210100 25012KT P6SM FEW250